Time;durP1;ratioP1;P1;durP2;ratioP2;P2;SDS_P1;SDS_P2;PMS_P1;PMS_P2;Temp;Humidity;BMP_temperature;BMP_pressure;BME280_temperature;BME280_humidity;BME280_pressure;Samples;Min_cycle;Max_cycle;Signal;HPM_P1;HPM_P2
2023/04/21 00:01:41;;;;;;;9.83;7.63;;;8.30;99.90;;;;;;5043846;28;20449;-80
2023/04/21 00:04:12;;;;;;;11.17;8.60;;;8.30;99.90;;;;;;5043518;28;20456;-80
2023/04/21 00:06:40;;;;;;;8.93;8.03;;;8.20;99.90;;;;;;5042518;28;20457;-80
2023/04/21 00:09:09;;;;;;;10.17;7.37;;;8.20;99.90;;;;;;5045406;28;21105;-80
2023/04/21 00:11:37;;;;;;;9.90;8.80;;;8.10;99.90;;;;;;5045483;28;20441;-80
2023/04/21 00:14:04;;;;;;;10.17;8.90;;;8.10;99.90;;;;;;5044127;28;20458;-80
2023/04/21 00:16:31;;;;;;;9.63;8.40;;;8.10;99.90;;;;;;5036881;28;20485;-81
2023/04/21 00:18:58;;;;;;;10.20;8.33;;;8.10;99.90;;;;;;5042482;28;21252;-81
2023/04/21 00:21:25;;;;;;;9.57;7.70;;;8.00;99.90;;;;;;5046525;28;20442;-81
2023/04/21 00:23:52;;;;;;;10.60;9.30;;;8.00;99.90;;;;;;5036917;28;20475;-81
2023/04/21 00:26:20;;;;;;;9.10;8.20;;;8.00;99.90;;;;;;5044805;28;20449;-81
2023/04/21 00:28:47;;;;;;;8.90;8.00;;;8.00;99.90;;;;;;5043072;28;20465;-81
2023/04/21 00:31:14;;;;;;;12.80;9.10;;;8.00;99.90;;;;;;5042640;28;20644;-81
2023/04/21 00:33:41;;;;;;;15.43;9.13;;;8.00;99.90;;;;;;5038970;28;20474;-81
2023/04/21 00:36:09;;;;;;;9.40;7.40;;;8.00;99.90;;;;;;5037478;28;20562;-81
2023/04/21 00:38:36;;;;;;;9.53;7.23;;;8.00;99.90;;;;;;5044924;28;20446;-80
2023/04/21 00:41:03;;;;;;;9.43;8.43;;;8.00;99.90;;;;;;5034469;28;20802;-81
2023/04/21 00:43:31;;;;;;;9.13;8.20;;;8.00;99.90;;;;;;5043781;28;20491;-81
2023/04/21 00:45:58;;;;;;;10.17;8.60;;;8.00;99.90;;;;;;5043441;28;20499;-80
2023/04/21 00:48:25;;;;;;;10.40;8.90;;;8.00;99.90;;;;;;5030412;28;20458;-81
2023/04/21 00:50:52;;;;;;;9.87;7.80;;;7.90;99.90;;;;;;5037505;28;20513;-81
2023/04/21 00:53:20;;;;;;;13.00;8.40;;;7.90;99.90;;;;;;5038695;28;20590;-81
2023/04/21 00:55:47;;;;;;;9.87;8.10;;;7.90;99.90;;;;;;5043830;28;20523;-81
2023/04/21 00:58:14;;;;;;;9.30;7.57;;;7.90;99.90;;;;;;5041571;28;20563;-81
2023/04/21 01:00:43;;;;;;;7.97;6.93;;;7.90;99.90;;;;;;5041163;28;20461;-81
2023/04/21 01:03:10;;;;;;;10.17;8.77;;;7.90;99.90;;;;;;5042917;28;20532;-80
2023/04/21 01:05:37;;;;;;;8.80;7.70;;;7.90;99.90;;;;;;5039166;28;20926;-80
2023/04/21 01:08:06;;;;;;;8.37;7.07;;;7.90;99.90;;;;;;5042477;28;20441;-80
2023/04/21 01:10:33;;;;;;;7.00;6.00;;;7.90;99.90;;;;;;5044139;28;20538;-80
2023/04/21 01:13:00;;;;;;;9.60;8.23;;;7.90;99.90;;;;;;5041777;28;21135;-80
2023/04/21 01:15:29;;;;;;;8.13;7.20;;;7.90;99.90;;;;;;5043091;28;20978;-80
2023/04/21 01:17:58;;;;;;;9.60;7.23;;;7.90;99.90;;;;;;5041941;28;20485;-80
2023/04/21 01:20:25;;;;;;;8.90;7.40;;;7.90;99.90;;;;;;5040375;28;20449;-80
2023/04/21 01:22:53;;;;;;;7.37;6.50;;;7.80;99.90;;;;;;5036743;28;20479;-80
2023/04/21 01:25:24;;;;;;;7.00;6.30;;;7.70;99.90;;;;;;5037642;28;20464;-79
2023/04/21 01:27:52;;;;;;;9.57;7.10;;;7.70;99.90;;;;;;5040850;28;20457;-80
2023/04/21 01:30:18;;;;;;;7.33;6.63;;;7.70;99.90;;;;;;5041082;28;20453;-80
2023/04/21 01:32:45;;;;;;;6.50;5.27;;;7.70;99.90;;;;;;5039560;28;20512;-80
2023/04/21 01:35:12;;;;;;;6.57;5.90;;;7.70;99.90;;;;;;5043869;28;20527;-80
2023/04/21 01:37:39;;;;;;;5.13;4.73;;;7.60;99.90;;;;;;5044969;28;20488;-80
2023/04/21 01:40:09;;;;;;;5.83;5.13;;;7.60;99.90;;;;;;5043512;28;20472;-80
2023/04/21 01:42:39;;;;;;;4.40;4.10;;;7.60;99.90;;;;;;5039307;28;20465;-80
2023/04/21 01:45:07;;;;;;;5.57;5.00;;;7.50;99.90;;;;;;5040450;28;20453;-80
2023/04/21 01:47:34;;;;;;;4.97;4.57;;;7.60;99.90;;;;;;5044296;28;20445;-80
2023/04/21 01:50:01;;;;;;;7.20;4.67;;;7.70;99.90;;;;;;5036957;28;20909;-80
2023/04/21 01:52:28;;;;;;;6.33;4.10;;;7.70;99.90;;;;;;5039750;28;20478;-80
2023/04/21 01:54:55;;;;;;;4.63;3.77;;;7.70;99.90;;;;;;5037795;28;20477;-80
2023/04/21 01:57:24;;;;;;;6.77;4.50;;;7.70;99.90;;;;;;5043183;28;20861;-80
2023/04/21 01:59:51;;;;;;;5.10;4.60;;;7.70;99.90;;;;;;5037110;28;20500;-79
2023/04/21 02:02:17;;;;;;;5.97;5.13;;;7.60;99.90;;;;;;5043493;28;20829;-80
2023/04/21 02:04:44;;;;;;;4.97;3.90;;;7.50;99.90;;;;;;5041282;28;20449;-80
2023/04/21 02:07:11;;;;;;;6.80;5.20;;;7.50;99.90;;;;;;5041464;28;20449;-80
2023/04/21 02:09:38;;;;;;;6.00;5.30;;;7.50;99.90;;;;;;5040744;28;20469;-80
2023/04/21 02:12:06;;;;;;;9.17;6.87;;;7.50;99.90;;;;;;5040990;28;20849;-80
2023/04/21 02:14:34;;;;;;;7.70;6.43;;;7.50;99.90;;;;;;5044188;28;20468;-80
2023/04/21 02:17:02;;;;;;;9.03;7.07;;;7.50;99.90;;;;;;5040072;28;20516;-80
2023/04/21 02:19:29;;;;;;;6.33;5.33;;;7.40;99.90;;;;;;5038512;28;20475;-80
2023/04/21 02:21:56;;;;;;;7.57;6.67;;;7.40;99.90;;;;;;5037758;28;20802;-79
2023/04/21 02:24:23;;;;;;;6.07;5.37;;;7.40;99.90;;;;;;5031971;28;20482;-80
2023/04/21 02:26:50;;;;;;;8.07;7.00;;;7.30;99.90;;;;;;5038561;28;20957;-80
2023/04/21 02:29:17;;;;;;;9.23;6.30;;;7.30;99.90;;;;;;5041676;28;20461;-80
2023/04/21 02:31:45;;;;;;;5.87;5.03;;;7.20;99.90;;;;;;5042179;28;20449;-80
2023/04/21 02:34:12;;;;;;;6.53;5.93;;;7.20;99.90;;;;;;5043935;28;20955;-80
2023/04/21 02:36:39;;;;;;;9.00;7.07;;;7.20;99.90;;;;;;5039687;28;20565;-79
2023/04/21 02:39:06;;;;;;;8.87;8.00;;;7.20;99.90;;;;;;5039646;28;20519;-80
2023/04/21 02:41:33;;;;;;;10.90;7.97;;;7.30;99.90;;;;;;5039680;28;20470;-79
2023/04/21 02:44:00;;;;;;;8.17;6.27;;;7.20;99.90;;;;;;5040548;28;20506;-80
2023/04/21 02:46:27;;;;;;;6.17;5.57;;;7.20;99.90;;;;;;5043744;28;20518;-80
2023/04/21 02:48:55;;;;;;;6.63;5.93;;;7.20;99.90;;;;;;5034941;28;20535;-80
2023/04/21 02:51:22;;;;;;;6.10;5.57;;;7.10;99.90;;;;;;5038616;28;20530;-79
2023/04/21 02:53:49;;;;;;;6.60;5.90;;;7.10;99.90;;;;;;5040145;28;20453;-79
2023/04/21 02:56:16;;;;;;;6.93;5.50;;;7.00;99.90;;;;;;5043643;28;20542;-80
2023/04/21 02:58:43;;;;;;;6.93;6.20;;;7.00;99.90;;;;;;5041650;28;20524;-80
2023/04/21 03:01:10;;;;;;;9.30;6.43;;;7.00;99.90;;;;;;5047595;28;20461;-79
2023/04/21 03:03:37;;;;;;;6.00;5.27;;;6.90;99.90;;;;;;5043326;28;20514;-80
2023/04/21 03:06:06;;;;;;;9.10;6.53;;;6.90;99.90;;;;;;5043777;28;20457;-79
2023/04/21 03:08:33;;;;;;;7.17;5.73;;;6.90;99.90;;;;;;5043377;28;20522;-80
2023/04/21 03:11:01;;;;;;;8.70;5.80;;;6.80;99.90;;;;;;5046729;28;20453;-81
2023/04/21 03:13:28;;;;;;;7.27;5.33;;;6.80;99.90;;;;;;5042977;28;20545;-80
2023/04/21 03:15:55;;;;;;;5.53;4.80;;;6.80;99.90;;;;;;5045749;28;20833;-80
2023/04/21 03:18:22;;;;;;;6.90;4.63;;;6.70;99.90;;;;;;5042781;28;20869;-80
2023/04/21 03:20:49;;;;;;;10.40;5.50;;;6.70;99.90;;;;;;5045520;28;20449;-80
2023/04/21 03:23:17;;;;;;;5.63;5.17;;;6.70;99.90;;;;;;5040446;28;20852;-80
2023/04/21 03:25:44;;;;;;;8.40;4.30;;;6.70;99.90;;;;;;5047538;28;20449;-80
2023/04/21 03:28:11;;;;;;;5.70;4.40;;;6.60;99.90;;;;;;5041906;28;20472;-80
2023/04/21 03:30:38;;;;;;;9.97;4.27;;;6.60;99.90;;;;;;5039749;28;20633;-80
2023/04/21 03:33:05;;;;;;;5.47;4.50;;;6.50;99.90;;;;;;5044823;28;20453;-81
2023/04/21 03:35:33;;;;;;;3.70;3.40;;;6.50;99.90;;;;;;5041697;28;20503;-80
2023/04/21 03:38:00;;;;;;;5.90;3.27;;;6.50;99.90;;;;;;5043758;28;20496;-80
2023/04/21 03:40:28;;;;;;;4.23;3.17;;;6.50;99.90;;;;;;5047335;28;20889;-80
2023/04/21 03:42:55;;;;;;;6.03;3.40;;;6.50;99.90;;;;;;5042316;28;20471;-80
2023/04/21 03:45:23;;;;;;;4.47;3.60;;;6.40;99.90;;;;;;5042488;28;20445;-81
2023/04/21 03:47:53;;;;;;;6.90;4.37;;;6.40;99.90;;;;;;5044420;28;20453;-81
2023/04/21 03:50:20;;;;;;;4.90;4.37;;;6.40;99.90;;;;;;5037168;28;20475;-81
2023/04/21 03:52:47;;;;;;;4.20;3.80;;;6.30;99.90;;;;;;5038194;28;20457;-80
2023/04/21 03:55:14;;;;;;;3.93;3.40;;;6.40;99.90;;;;;;5044320;28;20445;-80
2023/04/21 03:57:42;;;;;;;5.67;3.80;;;6.40;99.90;;;;;;5045260;28;20500;-80
2023/04/21 04:00:11;;;;;;;4.10;3.57;;;6.40;99.90;;;;;;5028763;28;20450;-80
2023/04/21 04:02:38;;;;;;;7.80;4.40;;;6.50;99.90;;;;;;5044695;28;20437;-80
2023/04/21 04:05:06;;;;;;;5.10;4.17;;;6.50;99.90;;;;;;5041189;28;20518;-80
2023/04/21 04:07:33;;;;;;;6.03;3.80;;;6.50;99.90;;;;;;5044136;28;20519;-80
2023/04/21 04:10:00;;;;;;;4.60;4.13;;;6.50;99.90;;;;;;5037104;28;20473;-80
2023/04/21 04:12:27;;;;;;;5.10;4.07;;;6.50;99.90;;;;;;5046099;28;20453;-80
2023/04/21 04:14:55;;;;;;;3.43;3.10;;;6.50;99.90;;;;;;5041506;28;20472;-81
2023/04/21 04:17:23;;;;;;;6.00;4.17;;;6.60;99.90;;;;;;5045458;28;20554;-81
2023/04/21 04:19:50;;;;;;;5.60;4.43;;;6.60;99.90;;;;;;5044034;28;20469;-80
2023/04/21 04:22:17;;;;;;;7.60;5.43;;;6.50;99.90;;;;;;5036844;28;20474;-80
2023/04/21 04:24:44;;;;;;;6.50;5.17;;;6.60;99.90;;;;;;5044297;28;20461;-80
2023/04/21 04:27:12;;;;;;;7.93;6.17;;;6.60;99.90;;;;;;5036503;28;21019;-80
2023/04/21 04:29:40;;;;;;;11.40;5.60;;;6.60;99.90;;;;;;5037688;28;20457;-81
2023/04/21 04:32:09;;;;;;;8.07;6.73;;;6.60;99.90;;;;;;5042752;28;20541;-81
2023/04/21 04:34:37;;;;;;;9.13;5.50;;;6.60;99.90;;;;;;5033611;28;20481;-80
2023/04/21 04:37:05;;;;;;;7.73;6.20;;;6.70;99.90;;;;;;5042733;28;20473;-80
2023/04/21 04:39:32;;;;;;;8.70;6.80;;;6.70;99.90;;;;;;5039495;28;20900;-80
2023/04/21 04:42:00;;;;;;;7.43;6.10;;;6.80;99.90;;;;;;5037593;28;20530;-81
2023/04/21 04:44:27;;;;;;;8.40;7.47;;;6.90;99.90;;;;;;5044043;28;20453;-81
2023/04/21 04:46:54;;;;;;;9.37;8.30;;;7.00;99.90;;;;;;5039376;28;20474;-80
2023/04/21 04:49:22;;;;;;;9.73;7.13;;;7.20;99.90;;;;;;5043879;28;20457;-80
2023/04/21 04:51:49;;;;;;;11.60;8.43;;;7.20;99.90;;;;;;5040905;28;20515;-81
2023/04/21 04:54:16;;;;;;;9.40;8.47;;;7.30;99.90;;;;;;5046106;28;20461;-81
2023/04/21 04:56:43;;;;;;;10.00;8.40;;;7.40;99.90;;;;;;5043221;28;20457;-81
2023/04/21 04:59:10;;;;;;;9.77;8.83;;;7.40;99.90;;;;;;5042272;28;20485;-81
2023/04/21 05:01:38;;;;;;;10.67;7.93;;;7.50;99.90;;;;;;5040103;28;20462;-81
2023/04/21 05:04:05;;;;;;;11.73;7.33;;;7.60;99.90;;;;;;5042211;28;20537;-81
2023/04/21 05:06:34;;;;;;;10.70;8.33;;;7.60;99.90;;;;;;5041193;28;20476;-81
2023/04/21 05:09:01;;;;;;;9.10;7.90;;;7.70;99.90;;;;;;5046931;28;20469;-81
2023/04/21 05:11:28;;;;;;;8.67;6.80;;;7.70;99.90;;;;;;5039022;28;20532;-81
2023/04/21 05:13:55;;;;;;;11.10;8.20;;;7.70;99.90;;;;;;5036955;28;20465;-81
2023/04/21 05:16:22;;;;;;;9.70;7.57;;;7.80;99.90;;;;;;5040697;28;20539;-81
2023/04/21 05:18:52;;;;;;;10.47;8.87;;;7.90;99.90;;;;;;5050390;28;20542;-81
2023/04/21 05:21:26;;;;;;;10.00;8.63;;;7.90;99.90;;;;;;5039595;28;20552;-81
2023/04/21 05:23:55;;;;;;;8.53;7.47;;;7.90;99.90;;;;;;5049957;28;20470;-81
2023/04/21 05:26:22;;;;;;;9.80;7.60;;;7.90;99.90;;;;;;5044769;28;20459;-81
2023/04/21 05:28:49;;;;;;;10.60;9.20;;;7.90;99.90;;;;;;5033284;28;20462;-81
2023/04/21 05:31:16;;;;;;;8.87;7.77;;;7.90;99.90;;;;;;5045190;28;20923;-81
2023/04/21 05:33:43;;;;;;;10.50;8.23;;;8.00;99.90;;;;;;5042024;28;20532;-81
2023/04/21 05:36:11;;;;;;;7.70;7.00;;;8.00;99.90;;;;;;5043117;28;20453;-82
2023/04/21 05:38:38;;;;;;;10.17;7.50;;;8.10;99.90;;;;;;5030560;28;21250;-81
2023/04/21 05:41:07;;;;;;;9.50;8.50;;;8.20;99.90;;;;;;5034906;28;20447;-81
2023/04/21 05:43:34;;;;;;;9.33;6.47;;;8.40;99.90;;;;;;5039705;28;21008;-81
2023/04/21 05:46:02;;;;;;;11.53;8.03;;;8.50;99.90;;;;;;5042639;28;20459;-81
2023/04/21 05:48:29;;;;;;;9.77;7.87;;;8.60;99.90;;;;;;5039338;28;20469;-81
2023/04/21 05:50:56;;;;;;;10.30;8.00;;;8.70;99.90;;;;;;5040868;28;20473;-81
2023/04/21 05:53:23;;;;;;;7.87;7.10;;;8.90;99.90;;;;;;5041607;28;20509;-81
2023/04/21 05:55:50;;;;;;;8.90;7.83;;;8.90;99.90;;;;;;5039068;28;20448;-81
2023/04/21 05:58:18;;;;;;;8.67;7.10;;;9.00;99.90;;;;;;5035422;28;20489;-81
2023/04/21 06:00:46;;;;;;;10.30;8.17;;;9.10;99.90;;;;;;5035113;28;20461;-80
2023/04/21 06:03:13;;;;;;;8.07;7.27;;;9.20;99.90;;;;;;5039791;28;20461;-81
2023/04/21 06:05:40;;;;;;;9.43;7.43;;;9.20;99.90;;;;;;5042297;28;20491;-80
2023/04/21 06:08:07;;;;;;;8.10;6.57;;;9.20;99.90;;;;;;5041623;28;20578;-80
2023/04/21 06:10:35;;;;;;;9.27;8.30;;;9.20;99.90;;;;;;5033929;28;20760;-80
2023/04/21 06:13:02;;;;;;;8.60;7.70;;;9.30;99.90;;;;;;5038486;28;20534;-81
2023/04/21 06:15:30;;;;;;;9.30;7.57;;;9.50;99.90;;;;;;5043286;28;20949;-80
2023/04/21 06:17:57;;;;;;;7.70;6.90;;;9.60;99.90;;;;;;5041611;28;20530;-80
2023/04/21 06:20:24;;;;;;;8.60;7.80;;;9.80;99.90;;;;;;5043991;28;20469;-80
2023/04/21 06:22:51;;;;;;;13.03;8.03;;;9.80;99.90;;;;;;5042659;28;20515;-80
2023/04/21 06:25:18;;;;;;;8.63;6.97;;;9.90;99.90;;;;;;5041968;28;20567;-80
2023/04/21 06:27:46;;;;;;;9.60;6.20;;;10.10;99.90;;;;;;5044694;28;20433;-81
2023/04/21 06:30:14;;;;;;;10.07;9.07;;;10.30;99.90;;;;;;5039708;28;20542;-80
2023/04/21 06:32:44;;;;;;;7.03;6.30;;;10.60;99.90;;;;;;5047557;28;20445;-80
2023/04/21 06:35:13;;;;;;;6.27;5.63;;;10.80;99.90;;;;;;5031793;28;20472;-80
2023/04/21 06:37:40;;;;;;;8.50;6.40;;;10.80;99.90;;;;;;5040121;28;20461;-80
2023/04/21 06:40:08;;;;;;;8.93;6.57;;;10.90;99.90;;;;;;5043108;28;20762;-80
2023/04/21 06:42:35;;;;;;;7.13;6.40;;;11.00;99.90;;;;;;5035525;28;21004;-80
2023/04/21 06:45:02;;;;;;;6.73;6.10;;;11.20;99.90;;;;;;5041207;28;20467;-80
2023/04/21 06:47:29;;;;;;;7.27;5.77;;;11.30;99.90;;;;;;5045134;28;20530;-80
2023/04/21 06:49:57;;;;;;;6.73;6.03;;;11.40;99.90;;;;;;5041492;28;20515;-80
2023/04/21 06:52:25;;;;;;;6.80;5.97;;;11.50;99.90;;;;;;5043765;28;20500;-80
2023/04/21 06:54:52;;;;;;;9.27;6.33;;;11.70;99.90;;;;;;5044194;28;20449;-79
2023/04/21 06:57:18;;;;;;;8.07;5.03;;;11.80;99.90;;;;;;5043829;28;20665;-80
2023/04/21 06:59:45;;;;;;;5.73;5.23;;;11.90;99.90;;;;;;5045342;28;20496;-80
2023/04/21 07:02:12;;;;;;;6.80;5.70;;;12.00;99.90;;;;;;5039911;28;20468;-80
2023/04/21 07:04:39;;;;;;;6.40;5.80;;;12.20;99.90;;;;;;5043616;28;20444;-80
2023/04/21 07:07:08;;;;;;;6.53;5.83;;;12.30;99.90;;;;;;5039358;28;20523;-80
2023/04/21 07:09:35;;;;;;;5.77;5.30;;;12.30;99.90;;;;;;5040176;28;20457;-80
2023/04/21 07:12:02;;;;;;;5.37;4.90;;;12.20;99.90;;;;;;5041579;28;20530;-80
2023/04/21 07:14:29;;;;;;;5.40;4.90;;;12.40;99.90;;;;;;5045333;28;20925;-80
2023/04/21 07:16:56;;;;;;;5.90;5.30;;;12.50;99.90;;;;;;5040502;28;20465;-80
2023/04/21 07:19:23;;;;;;;5.70;5.20;;;12.60;99.90;;;;;;5039796;28;20511;-80
2023/04/21 07:21:50;;;;;;;5.77;5.23;;;12.90;99.90;;;;;;5045613;28;20449;-80
2023/04/21 07:24:18;;;;;;;6.43;5.60;;;12.90;99.90;;;;;;5039408;28;20492;-80
2023/04/21 07:26:45;;;;;;;6.27;4.90;;;13.00;99.90;;;;;;5040941;28;20522;-80
2023/04/21 07:29:12;;;;;;;5.40;4.90;;;12.90;99.90;;;;;;5043593;28;20763;-79
2023/04/21 07:31:39;;;;;;;6.07;5.47;;;12.90;99.90;;;;;;5045109;28;20578;-80
2023/04/21 07:34:06;;;;;;;5.63;5.10;;;13.10;99.90;;;;;;5040626;28;20538;-80
2023/04/21 07:36:33;;;;;;;5.97;5.20;;;13.00;99.90;;;;;;5038453;28;20949;-80
2023/04/21 07:39:00;;;;;;;6.73;5.87;;;13.10;99.90;;;;;;5043947;28;20550;-80
2023/04/21 07:41:28;;;;;;;6.77;6.07;;;13.10;99.90;;;;;;5039387;28;20659;-81
2023/04/21 07:43:56;;;;;;;6.20;5.60;;;13.30;99.90;;;;;;5040776;28;20468;-80
2023/04/21 07:46:28;;;;;;;7.40;5.63;;;13.30;99.90;;;;;;5038975;28;20453;-81
2023/04/21 07:48:56;;;;;;;6.63;5.37;;;13.40;99.90;;;;;;5046032;28;20465;-81
2023/04/21 07:51:23;;;;;;;6.40;5.80;;;13.50;99.90;;;;;;5033249;28;20781;-81
2023/04/21 07:53:51;;;;;;;6.20;5.60;;;13.60;99.90;;;;;;5046905;28;20898;-81
2023/04/21 07:56:18;;;;;;;7.13;6.23;;;13.70;99.90;;;;;;5043137;28;20791;-81
2023/04/21 07:58:46;;;;;;;6.07;5.30;;;13.80;99.90;;;;;;5043243;28;20554;-80
2023/04/21 08:01:13;;;;;;;6.40;5.30;;;13.90;99.90;;;;;;5036772;28;20497;-81
2023/04/21 08:03:40;;;;;;;7.30;5.57;;;14.00;99.90;;;;;;5043212;28;20460;-81
2023/04/21 08:06:07;;;;;;;5.67;5.13;;;14.10;99.90;;;;;;5036134;28;20449;-80
2023/04/21 08:08:34;;;;;;;6.93;5.10;;;14.00;99.90;;;;;;5034975;28;20642;-81
2023/04/21 08:11:01;;;;;;;6.00;5.23;;;14.00;99.90;;;;;;5036394;28;20519;-80
2023/04/21 08:13:29;;;;;;;4.80;4.30;;;14.10;99.90;;;;;;5046068;28;20457;-81
2023/04/21 08:15:57;;;;;;;4.93;4.43;;;14.30;99.90;;;;;;5046835;28;20511;-81
2023/04/21 08:18:24;;;;;;;6.70;5.50;;;14.40;99.90;;;;;;5035299;28;20484;-80
2023/04/21 08:20:52;;;;;;;4.90;4.40;;;14.60;99.90;;;;;;5038349;28;20519;-81
2023/04/21 08:23:19;;;;;;;5.23;4.73;;;14.70;99.90;;;;;;5041559;28;20834;-80
2023/04/21 08:25:46;;;;;;;3.87;3.47;;;14.80;99.90;;;;;;5045328;28;20461;-81
2023/04/21 08:28:14;;;;;;;4.43;4.10;;;15.00;99.90;;;;;;5042175;28;20437;-81
2023/04/21 08:30:42;;;;;;;4.90;4.40;;;15.10;99.90;;;;;;5043178;28;20845;-80
2023/04/21 08:33:12;;;;;;;8.30;4.47;;;15.30;99.90;;;;;;5038957;28;20476;-80
2023/04/21 08:35:40;;;;;;;8.20;4.90;;;15.70;99.90;;;;;;5036768;28;20468;-80
2023/04/21 08:38:07;;;;;;;4.90;4.50;;;15.80;99.90;;;;;;5041976;28;20469;-81
2023/04/21 08:40:36;;;;;;;4.30;3.90;;;16.00;99.90;;;;;;5043703;28;20501;-81
2023/04/21 08:43:05;;;;;;;3.73;3.43;;;16.20;99.90;;;;;;5039586;28;20461;-81
2023/04/21 08:45:32;;;;;;;4.77;4.27;;;16.20;99.90;;;;;;5043123;28;20453;-81
2023/04/21 08:48:01;;;;;;;5.40;4.57;;;16.40;99.90;;;;;;5043817;28;20518;-81
2023/04/21 08:50:31;;;;;;;4.53;4.20;;;16.50;99.90;;;;;;5037550;28;20563;-81
2023/04/21 08:52:59;;;;;;;4.33;3.93;;;16.70;99.90;;;;;;5035770;28;20528;-81
2023/04/21 08:55:28;;;;;;;6.70;3.70;;;16.40;99.90;;;;;;5037589;28;20499;-81
2023/04/21 08:57:55;;;;;;;4.43;4.00;;;16.40;99.90;;;;;;5047030;28;20485;-81
2023/04/21 09:00:23;;;;;;;4.80;4.50;;;16.20;99.90;;;;;;5044089;28;20613;-81
2023/04/21 09:02:54;;;;;;;4.67;4.27;;;16.20;99.90;;;;;;5045005;28;20465;-81
2023/04/21 09:05:23;;;;;;;4.47;3.93;;;16.10;99.90;;;;;;5043983;28;20461;-82
2023/04/21 09:07:52;;;;;;;4.27;3.87;;;16.20;99.90;;;;;;5038037;28;20451;-81
2023/04/21 09:10:23;;;;;;;5.30;4.43;;;16.60;99.90;;;;;;5039136;28;20898;-82
2023/04/21 09:12:52;;;;;;;6.23;4.23;;;16.90;99.90;;;;;;5039835;28;20468;-81
2023/04/21 09:15:21;;;;;;;4.20;3.80;;;17.00;99.90;;;;;;5041384;28;20901;-81
2023/04/21 09:17:54;;;;;;;4.33;3.50;;;17.10;99.90;;;;;;5042739;28;20479;-81
2023/04/21 09:20:22;;;;;;;3.97;3.67;;;17.40;99.90;;;;;;5037072;28;20489;-81
2023/04/21 09:22:51;;;;;;;5.07;4.40;;;17.60;99.90;;;;;;5042738;28;20455;-81
2023/04/21 09:25:20;;;;;;;5.27;4.20;;;17.40;99.90;;;;;;5040377;28;20464;-81
2023/04/21 09:27:48;;;;;;;4.27;3.77;;;17.50;99.90;;;;;;5042136;28;20502;-81
2023/04/21 09:30:19;;;;;;;3.90;3.47;;;17.40;99.90;;;;;;5041405;28;20500;-81
2023/04/21 09:32:46;;;;;;;3.57;3.27;;;17.60;99.90;;;;;;5041163;28;20527;-81
2023/04/21 09:35:13;;;;;;;3.90;3.43;;;17.70;99.90;;;;;;5038817;28;20495;-81
2023/04/21 09:37:43;;;;;;;5.50;3.80;;;17.80;99.90;;;;;;5043625;28;20442;-81
2023/04/21 09:40:13;;;;;;;4.73;4.33;;;17.90;99.90;;;;;;5037707;28;20485;-81
2023/04/21 09:42:41;;;;;;;5.27;4.77;;;17.70;99.50;;;;;;5037391;28;20923;-81
2023/04/21 09:45:10;;;;;;;3.60;3.40;;;17.40;99.90;;;;;;5038862;28;20507;-81
2023/04/21 09:47:40;;;;;;;5.47;3.77;;;17.40;99.90;;;;;;5042050;28;21041;-81
2023/04/21 09:50:09;;;;;;;3.63;3.33;;;17.80;99.90;;;;;;5038197;28;20510;-81
2023/04/21 09:52:38;;;;;;;3.90;3.60;;;17.60;99.90;;;;;;5040247;28;20471;-81
2023/04/21 09:55:13;;;;;;;4.30;3.90;;;17.80;99.80;;;;;;5041421;28;20448;-81
2023/04/21 09:57:42;;;;;;;6.10;4.00;;;17.90;98.70;;;;;;5041892;28;20542;-81
2023/04/21 10:00:11;;;;;;;4.57;4.17;;;18.20;99.90;;;;;;5039521;28;20485;-81
2023/04/21 10:02:43;;;;;;;5.50;3.70;;;18.30;99.90;;;;;;5038458;28;20456;-81
2023/04/21 10:05:11;;;;;;;3.70;3.47;;;18.20;99.90;;;;;;5030513;28;20538;-81
2023/04/21 10:07:38;;;;;;;5.60;3.20;;;18.20;98.00;;;;;;5041054;28;20456;-81
2023/04/21 10:10:11;;;;;;;4.20;3.90;;;18.40;99.60;;;;;;5042185;28;20945;-81
2023/04/21 10:12:40;;;;;;;3.27;2.97;;;18.40;97.80;;;;;;5042601;28;20459;-81
2023/04/21 10:15:31;;;;;;;3.40;3.10;;;18.80;99.90;;;;;;5028825;28;20494;-82
2023/04/21 10:18:16;;;;;;;3.77;3.47;;;19.00;97.90;;;;;;5043293;28;20566;-81
2023/04/21 10:20:56;;;;;;;4.60;2.93;;;18.90;99.30;;;;;;5037615;28;20532;-81
2023/04/21 10:23:31;;;;;;;4.60;3.30;;;19.00;97.20;;;;;;5039301;28;20518;-81
2023/04/21 10:26:03;;;;;;;2.70;2.50;;;19.00;97.70;;;;;;5040627;28;20493;-82
2023/04/21 10:28:49;;;;;;;5.33;3.70;;;18.60;96.30;;;;;;5042185;28;20450;-82
2023/04/21 10:31:31;;;;;;;3.00;2.80;;;18.20;96.90;;;;;;5033971;28;20488;-81
2023/04/21 10:34:18;;;;;;;3.10;2.80;;;17.90;96.70;;;;;;5042201;28;20993;-81
2023/04/21 10:37:15;;;;;;;3.00;2.70;;;17.80;97.50;;;;;;5041361;28;20470;-80
2023/04/21 10:39:55;;;;;;;2.80;2.60;;;17.70;96.20;;;;;;5040604;28;20503;-82
2023/04/21 10:42:28;;;;;;;2.87;2.67;;;17.80;96.00;;;;;;5038483;28;21103;-81
2023/04/21 10:45:11;;;;;;;2.87;2.50;;;18.10;97.70;;;;;;5041825;28;20490;-81
2023/04/21 10:47:41;;;;;;;3.27;3.07;;;18.50;95.90;;;;;;5037246;28;20460;-82
2023/04/21 10:50:14;;;;;;;2.50;2.30;;;18.50;94.80;;;;;;5030925;28;20484;-82
2023/04/21 10:52:45;;;;;;;2.00;1.80;;;18.60;94.10;;;;;;5043238;28;20483;-81
2023/04/21 10:55:14;;;;;;;2.93;2.63;;;18.60;94.60;;;;;;5042258;28;20457;-81
2023/04/21 10:57:44;;;;;;;3.17;2.17;;;18.00;93.00;;;;;;5039187;28;20487;-82
2023/04/21 11:00:16;;;;;;;2.40;2.20;;;18.20;95.40;;;;;;5041676;28;20575;-81
2023/04/21 11:02:43;;;;;;;2.70;1.90;;;18.20;93.50;;;;;;5040032;28;20466;-82
2023/04/21 11:05:11;;;;;;;2.20;2.00;;;18.40;93.70;;;;;;5039758;28;20449;-81
2023/04/21 11:07:38;;;;;;;2.70;1.53;;;18.40;91.90;;;;;;5042913;28;20451;-82
2023/04/21 11:10:06;;;;;;;2.00;1.87;;;18.10;91.10;;;;;;5034332;28;20460;-81
2023/04/21 11:12:35;;;;;;;5.20;1.63;;;18.20;92.80;;;;;;5040221;28;20476;-82
2023/04/21 11:15:07;;;;;;;1.63;1.43;;;18.70;92.60;;;;;;5041695;28;20456;-81
2023/04/21 11:17:37;;;;;;;2.70;1.70;;;18.90;91.00;;;;;;5038630;28;20914;-82
2023/04/21 11:20:05;;;;;;;1.40;1.30;;;19.20;90.30;;;;;;5040815;28;20489;-82
2023/04/21 11:22:33;;;;;;;4.40;2.17;;;19.20;88.70;;;;;;5046514;28;20481;-82
2023/04/21 11:25:01;;;;;;;9.00;1.80;;;19.10;90.90;;;;;;5043245;28;20944;-82
2023/04/21 11:27:29;;;;;;;3.50;2.10;;;18.90;90.90;;;;;;5041286;28;20465;-82
2023/04/21 11:29:57;;;;;;;2.33;1.60;;;19.50;92.80;;;;;;5044596;28;20463;-82
2023/04/21 11:32:24;;;;;;;1.90;1.70;;;19.80;90.10;;;;;;5045748;28;20514;-82
2023/04/21 11:34:52;;;;;;;1.70;1.60;;;19.60;90.40;;;;;;5044940;28;20461;-82
2023/04/21 11:37:24;;;;;;;2.77;2.00;;;19.50;88.80;;;;;;5043126;28;21128;-82
2023/04/21 11:39:57;;;;;;;1.43;1.33;;;19.50;90.20;;;;;;5039604;28;20548;-82
2023/04/21 11:42:24;;;;;;;2.83;2.30;;;19.70;88.70;;;;;;5033676;28;20520;-81
2023/04/21 11:44:53;;;;;;;1.60;1.43;;;19.80;86.10;;;;;;5046364;28;20530;-82
2023/04/21 11:47:23;;;;;;;1.27;1.17;;;19.80;84.70;;;;;;5045214;28;20518;-81
2023/04/21 11:49:55;;;;;;;1.57;1.43;;;19.70;85.20;;;;;;5046178;28;20465;-81
2023/04/21 11:52:23;;;;;;;1.40;1.30;;;20.00;85.40;;;;;;5034193;28;20518;-81
2023/04/21 11:54:56;;;;;;;1.30;1.20;;;20.10;77.60;;;;;;5042296;28;20461;-82
2023/04/21 11:57:25;;;;;;;5.87;1.40;;;19.80;78.20;;;;;;5027531;28;20486;-81
2023/04/21 11:59:52;;;;;;;1.83;1.73;;;20.10;81.40;;;;;;5040312;28;20923;-82
2023/04/21 12:02:25;;;;;;;2.97;1.60;;;20.30;77.80;;;;;;5031158;28;20548;-81
2023/04/21 12:05:02;;;;;;;1.50;1.40;;;20.50;78.50;;;;;;5034048;28;20722;-82
2023/04/21 12:07:32;;;;;;;1.27;1.10;;;20.30;75.30;;;;;;5033867;28;20461;-82
2023/04/21 12:10:01;;;;;;;2.53;1.00;;;20.70;74.10;;;;;;5039285;28;20512;-83
2023/04/21 12:12:28;;;;;;;1.87;1.40;;;20.80;70.50;;;;;;5035828;28;20469;-83
2023/04/21 12:14:55;;;;;;;1.50;1.30;;;20.50;72.50;;;;;;5046079;28;20445;-83
2023/04/21 12:17:22;;;;;;;0.77;0.77;;;20.70;72.00;;;;;;5035593;28;20718;-82
2023/04/21 12:19:49;;;;;;;3.07;1.93;;;20.80;63.90;;;;;;5044137;28;20836;-83
2023/04/21 12:22:18;;;;;;;3.63;1.20;;;20.30;67.20;;;;;;5043771;28;20517;-83
2023/04/21 12:24:46;;;;;;;2.40;1.40;;;20.30;67.30;;;;;;5040704;28;20473;-83
2023/04/21 12:27:13;;;;;;;2.03;0.93;;;20.30;69.10;;;;;;5043723;28;20460;-83
2023/04/21 12:29:40;;;;;;;1.10;1.00;;;20.30;66.40;;;;;;5044232;28;20563;-83
2023/04/21 12:32:08;;;;;;;1.37;1.27;;;20.60;66.50;;;;;;5034738;28;20524;-83
2023/04/21 12:34:36;;;;;;;1.20;1.00;;;21.00;72.70;;;;;;5044063;28;20461;-83
2023/04/21 12:37:03;;;;;;;1.00;0.93;;;20.90;65.30;;;;;;5039327;28;20469;-82
2023/04/21 12:39:32;;;;;;;1.50;1.10;;;20.40;67.70;;;;;;5039724;28;20462;-83
2023/04/21 12:41:59;;;;;;;1.20;1.00;;;20.30;65.00;;;;;;5038782;28;20473;-83
2023/04/21 12:44:26;;;;;;;3.03;1.20;;;20.50;68.30;;;;;;5042198;28;20465;-83
2023/04/21 12:46:53;;;;;;;1.33;1.10;;;20.10;66.30;;;;;;5043641;28;20469;-83
2023/04/21 12:49:20;;;;;;;1.43;1.30;;;20.20;70.60;;;;;;5036194;28;20522;-82
2023/04/21 12:51:48;;;;;;;1.10;1.00;;;20.40;66.80;;;;;;5041382;28;20518;-82
2023/04/21 12:54:15;;;;;;;1.30;1.17;;;20.50;62.40;;;;;;5048910;28;21127;-83
2023/04/21 12:56:44;;;;;;;1.40;1.30;;;20.70;65.10;;;;;;5041676;28;20542;-83